createdAt,value
2019-04-26T00:02:07.714Z,86.30
2019-04-26T00:04:38.120Z,86.10
2019-04-26T00:07:08.114Z,86.50
2019-04-26T00:09:39.273Z,87.70
2019-04-26T00:12:25.807Z,86.70
2019-04-26T00:15:03.124Z,87.00
2019-04-26T00:17:36.841Z,86.80
2019-04-26T00:20:07.221Z,87.40
2019-04-26T00:22:36.246Z,87.60
2019-04-26T00:25:06.894Z,87.60
2019-04-26T00:27:35.711Z,86.80
2019-04-26T00:30:05.788Z,86.50
2019-04-26T00:32:34.678Z,86.50
2019-04-26T00:35:04.094Z,87.50
2019-04-26T00:37:33.015Z,86.80
2019-04-26T00:40:04.991Z,87.10
2019-04-26T00:42:33.848Z,86.90
2019-04-26T00:45:20.879Z,86.50
2019-04-26T00:47:49.944Z,87.50
2019-04-26T00:50:19.123Z,86.50
2019-04-26T00:52:47.988Z,87.70
2019-04-26T00:55:17.646Z,87.20
2019-04-26T00:57:46.750Z,87.60
2019-04-26T01:00:18.173Z,87.50
2019-04-26T01:02:48.794Z,87.90
2019-04-26T01:05:18.796Z,87.70
2019-04-26T01:07:49.584Z,88.00
2019-04-26T01:10:19.555Z,87.20
2019-04-26T01:12:48.609Z,86.90
2019-04-26T01:15:20.004Z,86.90
2019-04-26T01:17:48.199Z,86.90
2019-04-26T01:20:17.857Z,87.30
2019-04-26T01:22:50.201Z,86.80
2019-04-26T01:25:46.721Z,87.10
2019-04-26T01:28:39.386Z,86.70
2019-04-26T01:31:08.454Z,87.30
2019-04-26T01:33:37.900Z,87.60
2019-04-26T01:36:13.083Z,86.90
2019-04-26T01:38:37.576Z,87.20
2019-04-26T01:41:11.168Z,87.10
2019-04-26T01:43:44.391Z,86.60
2019-04-26T01:46:14.990Z,86.50
2019-04-26T01:48:52.726Z,86.20
2019-04-26T01:51:24.812Z,85.90
2019-04-26T01:53:53.791Z,86.30
2019-04-26T01:56:29.309Z,86.40
2019-04-26T01:58:58.377Z,85.90
2019-04-26T02:01:31.626Z,86.40
2019-04-26T02:04:00.702Z,85.90
2019-04-26T02:06:33.397Z,86.60
2019-04-26T02:09:00.274Z,85.30
2019-04-26T02:11:29.225Z,85.60
2019-04-26T02:13:58.175Z,85.40
2019-04-26T02:16:27.085Z,85.10
2019-04-26T02:18:56.050Z,85.10
2019-04-26T02:21:26.592Z,84.80
2019-04-26T02:24:09.751Z,85.10
2019-04-26T02:26:40.352Z,85.20
2019-04-26T02:29:15.356Z,84.90
2019-04-26T02:31:45.314Z,85.70
2019-04-26T02:34:14.178Z,85.60
2019-04-26T02:36:57.255Z,85.80
2019-04-26T02:39:22.732Z,85.40
2019-04-26T02:41:53.489Z,85.60
2019-04-26T02:44:26.665Z,85.70
2019-04-26T02:47:32.573Z,86.00
2019-04-26T02:50:11.586Z,86.20
2019-04-26T02:52:52.896Z,86.30
2019-04-26T02:55:58.281Z,87.00
2019-04-26T02:58:31.934Z,86.70
2019-04-26T03:01:01.202Z,87.70
2019-04-26T03:03:31.665Z,87.40
2019-04-26T03:06:00.642Z,86.90
2019-04-26T03:08:29.823Z,87.00
2019-04-26T03:11:06.309Z,87.10
2019-04-26T03:13:38.646Z,87.30
2019-04-26T03:16:09.957Z,87.00
2019-04-26T03:18:43.749Z,86.10
2019-04-26T03:21:46.058Z,86.30
2019-04-26T03:24:21.117Z,85.60
2019-04-26T03:27:05.311Z,85.80
2019-04-26T03:30:18.637Z,86.80
2019-04-26T03:32:50.493Z,86.40
2019-04-26T03:35:20.280Z,86.20
2019-04-26T03:38:06.113Z,85.90
2019-04-26T03:40:54.976Z,86.60
2019-04-26T03:43:43.152Z,84.80
2019-04-26T03:46:27.876Z,85.10
2019-04-26T03:49:31.754Z,85.90
2019-04-26T03:52:40.144Z,86.20
2019-04-26T03:55:40.247Z,86.70
2019-04-26T03:59:01.905Z,87.40
2019-04-26T04:01:32.629Z,87.70
2019-04-26T04:04:03.224Z,88.60
2019-04-26T04:06:48.791Z,89.80
2019-04-26T04:09:08.246Z,90.40
2019-04-26T04:12:10.098Z,90.40
2019-04-26T04:14:32.857Z,90.50
2019-04-26T04:17:23.414Z,90.70
2019-04-26T04:20:18.037Z,90.80
2019-04-26T04:23:07.147Z,91.40
2019-04-26T04:25:45.985Z,91.50
2019-04-26T04:28:38.651Z,91.00
2019-04-26T04:31:27.175Z,91.60
2019-04-26T04:34:11.037Z,91.80
2019-04-26T04:36:48.265Z,91.30
2019-04-26T04:39:24.349Z,91.50
2019-04-26T04:42:00.997Z,92.00
2019-04-26T04:44:49.947Z,92.40
2019-04-26T04:47:31.339Z,93.20
2019-04-26T04:50:13.775Z,93.20
2019-04-26T04:52:52.234Z,92.90
2019-04-26T04:55:29.753Z,93.70
2019-04-26T04:58:05.088Z,93.40
2019-04-26T05:01:12.362Z,93.90
2019-04-26T05:03:46.900Z,94.70
2019-04-26T05:06:23.743Z,94.20
2019-04-26T05:09:03.513Z,94.90
2019-04-26T05:11:53.974Z,95.30
2019-04-26T05:14:43.674Z,94.60
2019-04-26T05:17:37.726Z,94.80
2019-04-26T05:20:29.463Z,95.40
2019-04-26T05:23:35.633Z,94.60
2019-04-26T05:26:09.443Z,95.70
2019-04-26T05:29:03.055Z,95.00
2019-04-26T05:32:00.585Z,95.30
2019-04-26T05:34:34.590Z,95.10
2019-04-26T05:37:30.058Z,94.90
2019-04-26T05:40:17.257Z,94.80
2019-04-26T05:43:09.226Z,94.80
2019-04-26T05:45:58.125Z,94.80
2019-04-26T05:49:06.428Z,95.90
2019-04-26T05:52:13.476Z,95.60
2019-04-26T05:55:19.215Z,95.70
2019-04-26T05:58:01.340Z,95.30
2019-04-26T06:00:35.221Z,96.30
2019-04-26T06:03:31.174Z,97.10
2019-04-26T06:06:19.938Z,95.30
2019-04-26T06:08:53.852Z,95.30
2019-04-26T06:11:27.628Z,95.30
2019-04-26T06:14:02.011Z,95.20
2019-04-26T06:16:57.357Z,95.40
2019-04-26T06:19:43.171Z,95.80
2019-04-26T06:22:27.292Z,95.90
2019-04-26T06:25:30.212Z,96.20
2019-04-26T06:28:04.467Z,96.60
2019-04-26T06:30:47.958Z,96.60
2019-04-26T06:33:23.539Z,97.60
2019-04-26T06:35:54.714Z,97.70
2019-04-26T06:38:44.333Z,97.00
2019-04-26T06:42:08.241Z,96.40
2019-04-26T06:44:51.067Z,97.30
2019-04-26T06:47:30.733Z,97.10
2019-04-26T06:50:07.966Z,97.10
2019-04-26T06:52:45.852Z,96.90
2019-04-26T06:55:21.232Z,97.20
2019-04-26T06:58:12.967Z,97.40
2019-04-26T07:00:48.396Z,97.40
2019-04-26T07:03:26.163Z,97.10
2019-04-26T07:06:02.621Z,97.70
2019-04-26T07:08:39.781Z,97.70
2019-04-26T07:11:34.328Z,97.60
2019-04-26T07:14:15.751Z,97.40
2019-04-26T07:16:58.040Z,97.60
2019-04-26T07:20:01.398Z,97.50
2019-04-26T07:22:47.213Z,97.70
2019-04-26T07:25:42.210Z,97.80
2019-04-26T07:28:26.339Z,97.70
2019-04-26T07:31:28.615Z,98.00
2019-04-26T07:34:20.695Z,97.90
2019-04-26T07:37:26.317Z,98.40
2019-04-26T07:40:34.823Z,98.40
2019-04-26T07:43:14.795Z,99.10
2019-04-26T07:46:12.738Z,98.90
2019-04-26T07:48:56.853Z,98.60
2019-04-26T07:51:31.895Z,99.10
2019-04-26T07:54:26.466Z,98.40
2019-04-26T07:57:40.877Z,98.80
2019-04-26T08:00:15.617Z,99.30
2019-04-26T08:03:04.100Z,99.10
2019-04-26T08:05:42.105Z,99.00
2019-04-26T08:08:11.432Z,99.80
2019-04-26T08:10:40.614Z,98.60
2019-04-26T08:13:13.017Z,99.60
2019-04-26T08:15:49.189Z,99.30
2019-04-26T08:18:20.491Z,98.90
2019-04-26T08:20:51.058Z,99.50
2019-04-26T08:23:38.578Z,99.70
2019-04-26T08:25:53.635Z,99.90
2019-04-26T08:28:23.786Z,98.50
2019-04-26T08:30:54.891Z,98.50
2019-04-26T08:33:27.583Z,98.90
2019-04-26T08:35:56.448Z,99.00
2019-04-26T08:38:25.365Z,97.80
2019-04-26T08:40:54.337Z,98.20
2019-04-26T08:43:30.553Z,98.60
2019-04-26T08:46:03.261Z,98.50
2019-04-26T08:48:32.443Z,99.20
2019-04-26T08:51:03.084Z,98.40
2019-04-26T08:53:32.265Z,98.20
2019-04-26T08:56:01.048Z,97.90
2019-04-26T08:58:30.135Z,98.70
2019-04-26T09:01:09.997Z,99.50
2019-04-26T09:03:42.165Z,98.70
2019-04-26T09:06:15.853Z,99.10
2019-04-26T09:08:45.112Z,98.00
2019-04-26T09:11:25.370Z,98.90
2019-04-26T09:13:46.910Z,97.10
2019-04-26T09:16:17.072Z,98.10
2019-04-26T09:18:52.659Z,97.90
2019-04-26T09:21:19.242Z,98.10
2019-04-26T09:24:01.954Z,98.50
2019-04-26T09:26:38.525Z,98.40
2019-04-26T09:29:26.460Z,98.00
2019-04-26T09:31:56.444Z,98.60
2019-04-26T09:34:29.640Z,98.60
2019-04-26T09:36:58.622Z,98.50
2019-04-26T09:39:27.969Z,98.30
2019-04-26T09:42:06.033Z,98.10
2019-04-26T09:44:45.794Z,98.70
2019-04-26T09:47:31.394Z,98.10
2019-04-26T09:50:01.924Z,97.80
2019-04-26T09:52:38.801Z,98.70
2019-04-26T09:55:07.636Z,98.80
2019-04-26T09:57:36.481Z,99.20
2019-04-26T10:00:10.301Z,99.50
2019-04-26T10:02:37.680Z,99.50
2019-04-26T10:05:08.140Z,98.50
2019-04-26T10:07:38.847Z,99.90
2019-04-26T10:10:08.995Z,99.20
2019-04-26T10:12:39.431Z,99.50
2019-04-26T10:15:26.864Z,99.10
2019-04-26T10:17:55.814Z,98.80
2019-04-26T10:20:24.735Z,99.40
2019-04-26T10:22:53.785Z,98.70
2019-04-26T10:25:22.920Z,98.40
2019-04-26T10:27:52.422Z,98.70
2019-04-26T10:30:22.427Z,98.90
2019-04-26T10:32:51.432Z,99.20
2019-04-26T10:35:21.688Z,99.10
2019-04-26T10:37:52.706Z,98.50
2019-04-26T10:40:21.965Z,97.80
2019-04-26T10:42:50.860Z,99.00
2019-04-26T10:45:21.457Z,97.10
2019-04-26T10:47:50.448Z,97.80
2019-04-26T10:50:19.260Z,97.60
2019-04-26T10:52:54.085Z,98.10
2019-04-26T10:55:21.906Z,98.80
2019-04-26T10:58:05.231Z,98.30
2019-04-26T11:00:41.721Z,98.00
2019-04-26T11:03:10.614Z,98.60
2019-04-26T11:05:39.580Z,97.50
2019-04-26T11:08:08.553Z,98.90
2019-04-26T11:10:48.118Z,98.40
2019-04-26T11:13:08.449Z,97.60
2019-04-26T11:15:37.550Z,97.50
2019-04-26T11:18:06.331Z,97.40
2019-04-26T11:20:35.295Z,97.10
2019-04-26T11:23:04.130Z,97.20
2019-04-26T11:25:32.949Z,97.40
2019-04-26T11:28:03.732Z,97.50
2019-04-26T11:30:33.064Z,98.30
2019-04-26T11:33:01.925Z,97.40
2019-04-26T11:35:33.273Z,98.30
2019-04-26T11:38:01.512Z,97.40
2019-04-26T11:40:30.622Z,96.70
2019-04-26T11:42:59.480Z,97.70
2019-04-26T11:45:28.530Z,96.70
2019-04-26T11:47:57.529Z,97.70
2019-04-26T11:50:29.559Z,97.90
2019-04-26T11:52:58.652Z,97.10
2019-04-26T11:55:29.667Z,96.90
2019-04-26T11:57:58.315Z,97.50
2019-04-26T12:00:28.819Z,97.20
2019-04-26T12:02:57.669Z,97.60
2019-04-26T12:05:31.201Z,97.40
2019-04-26T12:08:01.666Z,97.80
2019-04-26T12:10:30.459Z,98.40
2019-04-26T12:13:05.649Z,97.70
2019-04-26T12:15:30.690Z,97.40
2019-04-26T12:17:59.659Z,96.70
2019-04-26T12:20:28.598Z,97.00
2019-04-26T12:22:57.630Z,96.70
2019-04-26T12:25:26.595Z,97.60
2019-04-26T12:27:55.647Z,97.20
2019-04-26T12:30:26.692Z,97.70
2019-04-26T12:32:57.908Z,97.30
2019-04-26T12:35:26.809Z,98.00
2019-04-26T12:37:55.904Z,97.60
2019-04-26T12:40:24.754Z,98.00
2019-04-26T12:42:53.800Z,98.00
2019-04-26T12:45:30.366Z,98.10
2019-04-26T12:48:01.062Z,98.50
2019-04-26T12:50:35.202Z,98.20
2019-04-26T12:53:00.849Z,98.50
2019-04-26T12:55:29.728Z,98.00
2019-04-26T12:57:59.079Z,98.20
2019-04-26T13:00:32.951Z,98.70
2019-04-26T13:03:01.753Z,97.90
2019-04-26T13:05:30.808Z,97.60
2019-04-26T13:07:59.669Z,97.50
2019-04-26T13:10:44.743Z,97.40
2019-04-26T13:13:30.487Z,97.50
2019-04-26T13:16:13.264Z,97.00
2019-04-26T13:18:45.203Z,98.10
2019-04-26T13:21:13.650Z,97.50
2019-04-26T13:23:42.491Z,97.10
2019-04-26T13:26:11.464Z,97.60
2019-04-26T13:28:40.280Z,97.20
2019-04-26T13:31:09.061Z,97.10
2019-04-26T13:33:37.900Z,97.00
2019-04-26T13:36:07.093Z,97.30
2019-04-26T13:38:39.322Z,96.50
2019-04-26T13:41:06.761Z,96.80
2019-04-26T13:43:35.704Z,97.00
2019-04-26T13:46:09.289Z,97.80
2019-04-26T13:48:43.683Z,97.80
2019-04-26T13:51:20.524Z,96.50
2019-04-26T13:53:49.471Z,96.30
2019-04-26T13:56:18.253Z,96.00
2019-04-26T13:58:47.102Z,95.70
2019-04-26T14:01:18.630Z,96.70
2019-04-26T14:03:47.057Z,95.60
2019-04-26T14:06:15.922Z,93.70
2019-04-26T14:08:44.862Z,93.00
2019-04-26T14:11:13.709Z,93.70
2019-04-26T14:13:42.537Z,94.90
2019-04-26T14:16:11.503Z,94.50
2019-04-26T14:18:40.753Z,92.90
2019-04-26T14:21:09.661Z,93.60
2019-04-26T14:23:49.480Z,93.00
2019-04-26T14:26:24.229Z,92.20
2019-04-26T14:28:54.246Z,91.90
2019-04-26T14:31:23.999Z,92.60
2019-04-26T14:33:53.038Z,93.20
2019-04-26T14:36:22.611Z,94.10
2019-04-26T14:39:05.259Z,92.50
2019-04-26T14:41:24.370Z,92.00
2019-04-26T14:43:56.781Z,92.40
2019-04-26T14:46:24.243Z,92.70
2019-04-26T14:49:01.812Z,92.30
2019-04-26T14:51:24.282Z,92.60
2019-04-26T14:53:53.260Z,92.00
2019-04-26T14:56:24.570Z,91.90
2019-04-26T14:58:52.765Z,92.60
2019-04-26T15:01:35.054Z,91.60
2019-04-26T15:04:20.982Z,92.00
2019-04-26T15:06:57.910Z,92.60
2019-04-26T15:09:29.861Z,91.60
2019-04-26T15:11:57.862Z,92.60
2019-04-26T15:14:23.715Z,92.40
2019-04-26T15:16:53.069Z,92.40
2019-04-26T15:19:22.583Z,91.80
2019-04-26T15:21:52.362Z,92.80
2019-04-26T15:24:22.650Z,93.00
2019-04-26T15:26:51.885Z,92.60
2019-04-26T15:29:26.756Z,92.80
2019-04-26T15:31:53.648Z,93.00
2019-04-26T15:34:23.665Z,92.60
2019-04-26T15:36:54.047Z,92.90
2019-04-26T15:39:44.488Z,90.90
2019-04-26T15:42:18.115Z,90.70
2019-04-26T15:45:04.740Z,91.20
2019-04-26T15:47:37.986Z,91.10
2019-04-26T15:50:11.355Z,91.70
2019-04-26T15:52:40.240Z,91.20
2019-04-26T15:55:09.053Z,91.00
2019-04-26T15:57:37.948Z,91.20
2019-04-26T16:00:07.330Z,92.50
2019-04-26T16:02:36.258Z,91.60
2019-04-26T16:05:06.755Z,91.90
2019-04-26T16:07:35.686Z,92.90
2019-04-26T16:10:06.249Z,92.70
2019-04-26T16:12:35.183Z,92.60
2019-04-26T16:15:06.572Z,91.40
2019-04-26T16:17:39.779Z,90.50
2019-04-26T16:20:07.605Z,92.00
2019-04-26T16:25:06.433Z,91.90
2019-04-26T16:27:36.644Z,92.10
2019-04-26T16:30:08.660Z,90.10
2019-04-26T16:32:43.232Z,92.30
2019-04-26T16:35:12.523Z,91.10
2019-04-26T16:37:43.053Z,92.10
2019-04-26T16:40:13.716Z,91.20
2019-04-26T16:42:42.498Z,90.00
2019-04-26T16:45:12.299Z,88.70
2019-04-26T16:47:45.187Z,88.80
2019-04-26T16:50:14.838Z,90.80
2019-04-26T16:52:47.453Z,90.00
2019-04-26T16:55:20.339Z,90.60
2019-04-26T16:57:53.671Z,91.00
2019-04-26T17:00:16.179Z,92.10
2019-04-26T17:02:45.119Z,91.50
2019-04-26T17:05:20.893Z,92.10
2019-04-26T17:07:46.039Z,92.50
2019-04-26T17:10:16.556Z,93.10
2019-04-26T17:12:46.191Z,92.80
2019-04-26T17:15:17.590Z,92.40
2019-04-26T17:17:50.193Z,92.80
2019-04-26T17:20:17.490Z,92.30
2019-04-26T17:22:59.421Z,92.80
2019-04-26T17:25:32.377Z,92.90
2019-04-26T17:28:03.442Z,92.70
2019-04-26T17:30:34.544Z,93.20
2019-04-26T17:33:03.259Z,93.00
2019-04-26T17:35:32.744Z,93.10
2019-04-26T17:38:05.011Z,93.30
2019-04-26T17:40:36.453Z,93.50
2019-04-26T17:43:05.470Z,93.90
2019-04-26T17:45:36.338Z,93.20
2019-04-26T17:48:06.629Z,93.30
2019-04-26T17:50:35.461Z,93.30
2019-04-26T17:53:06.571Z,93.50
2019-04-26T17:55:35.898Z,93.40
2019-04-26T17:58:11.941Z,93.60
2019-04-26T18:00:45.805Z,94.10
2019-04-26T18:03:13.147Z,94.10
2019-04-26T18:05:55.792Z,93.80
2019-04-26T18:08:31.413Z,93.30
2019-04-26T18:10:42.714Z,93.40
2019-04-26T18:13:16.393Z,93.70
2019-04-26T18:15:46.907Z,93.10
2019-04-26T18:18:30.304Z,93.60
2019-04-26T18:21:05.158Z,93.60
2019-04-26T18:23:34.265Z,93.60
2019-04-26T18:26:03.307Z,93.90
2019-04-26T18:28:33.660Z,93.80
2019-04-26T18:31:05.571Z,94.50
2019-04-26T18:33:34.654Z,94.30
2019-04-26T18:36:04.464Z,94.40
2019-04-26T18:38:34.554Z,93.70
2019-04-26T18:41:03.840Z,94.10
2019-04-26T18:43:33.062Z,94.00
2019-04-26T18:46:06.676Z,93.90
2019-04-26T18:48:40.749Z,93.90
2019-04-26T18:51:07.437Z,94.40
2019-04-26T18:53:39.691Z,93.80
2019-04-26T18:56:10.330Z,93.60
2019-04-26T18:58:39.468Z,93.90
2019-04-26T19:01:10.092Z,94.20
2019-04-26T19:03:38.949Z,94.90
2019-04-26T19:06:07.762Z,94.50
2019-04-26T19:08:45.461Z,94.80
2019-04-26T19:11:11.082Z,95.00
2019-04-26T19:13:56.450Z,94.60
2019-04-26T19:16:27.078Z,94.90
2019-04-26T19:19:22.479Z,94.80
2019-04-26T19:21:46.120Z,95.40
2019-04-26T19:24:19.588Z,95.10
2019-04-26T19:26:49.898Z,95.80
2019-04-26T19:29:18.489Z,95.90
2019-04-26T19:31:46.783Z,95.90
2019-04-26T19:34:17.833Z,95.90
2019-04-26T19:36:46.221Z,95.70
2019-04-26T19:39:15.611Z,96.00
2019-04-26T19:41:44.456Z,96.20
2019-04-26T19:44:14.759Z,96.50
2019-04-26T19:47:03.208Z,96.40
2019-04-26T19:49:50.255Z,96.30
2019-04-26T19:52:33.639Z,96.40
2019-04-26T19:55:11.533Z,96.80
2019-04-26T19:57:41.043Z,96.90
2019-04-26T20:00:11.474Z,97.00
2019-04-26T20:02:41.851Z,97.00
2019-04-26T20:05:11.822Z,97.00
2019-04-26T20:07:41.604Z,96.80
2019-04-26T20:10:10.825Z,97.00
2019-04-26T20:12:40.980Z,97.30
2019-04-26T20:15:24.938Z,97.50
2019-04-26T20:17:40.964Z,97.30
2019-04-26T20:20:18.923Z,97.60
2019-04-26T20:22:42.025Z,97.10
2019-04-26T20:25:11.893Z,96.70
2019-04-26T20:27:41.409Z,97.40
2019-04-26T20:30:12.578Z,97.10
2019-04-26T20:32:44.669Z,97.30
2019-04-26T20:35:20.025Z,97.20
2019-04-26T20:37:46.235Z,97.20
2019-04-26T20:40:21.740Z,96.40
2019-04-26T20:42:46.391Z,96.80
2019-04-26T20:45:16.996Z,97.10
2019-04-26T20:47:46.660Z,97.30
2019-04-26T20:50:16.617Z,97.20
2019-04-26T20:52:45.781Z,97.30
2019-04-26T20:55:14.813Z,97.30
2019-04-26T20:57:44.808Z,96.90
2019-04-26T21:00:14.164Z,97.20
2019-04-26T21:02:43.023Z,96.80
2019-04-26T21:05:14.675Z,96.30
2019-04-26T21:07:49.097Z,96.50
2019-04-26T21:10:21.007Z,96.80
2019-04-26T21:12:47.301Z,96.80
2019-04-26T21:15:15.741Z,97.30
2019-04-26T21:17:44.560Z,96.80
2019-04-26T21:20:13.526Z,96.70
2019-04-26T21:22:42.492Z,97.00
2019-04-26T21:25:12.928Z,96.80
2019-04-26T21:27:51.599Z,96.70
2019-04-26T21:30:21.749Z,96.80
2019-04-26T21:32:55.984Z,96.90
2019-04-26T21:35:28.375Z,97.20
2019-04-26T21:38:04.878Z,97.10
2019-04-26T21:40:55.383Z,97.10
2019-04-26T21:43:24.852Z,96.90
2019-04-26T21:46:01.648Z,96.90
2019-04-26T21:48:24.508Z,97.30
2019-04-26T21:50:53.780Z,97.50
2019-04-26T21:53:23.966Z,97.60
2019-04-26T21:55:54.629Z,97.20
2019-04-26T21:58:24.931Z,97.30
2019-04-26T22:00:58.999Z,97.10
2019-04-26T22:03:28.101Z,96.70
2019-04-26T22:05:57.051Z,96.70
2019-04-26T22:08:34.820Z,97.00
2019-04-26T22:11:03.702Z,97.20
2019-04-26T22:13:41.553Z,97.40
2019-04-26T22:16:29.293Z,97.60
2019-04-26T22:18:44.697Z,97.50
2019-04-26T22:21:21.532Z,97.90
2019-04-26T22:23:55.630Z,97.90
2019-04-26T22:26:24.569Z,98.20
2019-04-26T22:28:53.578Z,98.20
2019-04-26T22:31:23.737Z,97.90
2019-04-26T22:33:54.632Z,98.00
2019-04-26T22:36:23.479Z,97.90
2019-04-26T22:38:57.241Z,98.10
2019-04-26T22:41:24.394Z,98.20
2019-04-26T22:43:55.296Z,98.10
2019-04-26T22:46:47.346Z,98.20
2019-04-26T22:49:14.207Z,98.60
2019-04-26T22:51:43.584Z,98.60
2019-04-26T22:54:12.645Z,98.60
2019-04-26T22:56:41.435Z,98.40
2019-04-26T22:59:13.798Z,98.90
2019-04-26T23:01:44.710Z,98.70
2019-04-26T23:04:16.291Z,98.80
2019-04-26T23:06:47.003Z,98.50
2019-04-26T23:09:17.437Z,98.50
2019-04-26T23:11:47.935Z,98.50
2019-04-26T23:14:19.096Z,98.70
2019-04-26T23:17:04.172Z,98.80
2019-04-26T23:19:25.163Z,98.70
2019-04-26T23:21:56.200Z,98.80
2019-04-26T23:24:25.429Z,98.80
2019-04-26T23:26:54.351Z,98.70
2019-04-26T23:29:23.169Z,98.70
2019-04-26T23:31:53.501Z,98.70
2019-04-26T23:34:25.066Z,98.90
2019-04-26T23:36:53.965Z,98.90
2019-04-26T23:39:24.634Z,98.70
2019-04-26T23:41:54.128Z,99.10
2019-04-26T23:44:23.295Z,99.30
2019-04-26T23:46:54.879Z,99.60
2019-04-26T23:49:25.008Z,99.00
2019-04-26T23:51:53.496Z,98.90
2019-04-26T23:54:23.866Z,98.60
2019-04-26T23:56:55.691Z,98.70
2019-04-26T23:59:24.791Z,99.00
